createdAt,value
2018-10-09T00:01:15.914Z,3.77
2018-10-09T00:03:51.419Z,3.97
2018-10-09T00:06:23.378Z,3.60
2018-10-09T00:09:02.293Z,3.77
2018-10-09T00:11:35.760Z,3.43
2018-10-09T00:14:10.143Z,3.83
2018-10-09T00:16:40.298Z,3.40
2018-10-09T00:19:09.618Z,4.83
2018-10-09T00:21:39.478Z,3.73
2018-10-09T00:24:08.690Z,5.10
2018-10-09T00:26:42.399Z,4.23
2018-10-09T00:29:16.387Z,3.93
2018-10-09T00:31:48.538Z,4.00
2018-10-09T00:34:17.701Z,3.97
2018-10-09T00:36:50.890Z,3.90
2018-10-09T00:39:20.006Z,5.80
2018-10-09T00:41:49.619Z,3.87
2018-10-09T00:44:18.510Z,3.80
2018-10-09T00:46:51.182Z,3.87
2018-10-09T00:49:22.738Z,5.10
2018-10-09T00:51:59.161Z,3.97
2018-10-09T00:54:28.142Z,3.80
2018-10-09T00:56:57.628Z,4.17
2018-10-09T00:59:29.959Z,3.87
2018-10-09T01:01:58.911Z,4.00
2018-10-09T01:04:28.461Z,3.80
2018-10-09T01:07:00.222Z,4.17
2018-10-09T01:09:35.353Z,4.20
2018-10-09T01:12:11.029Z,3.63
2018-10-09T01:14:40.117Z,3.90
2018-10-09T01:17:09.702Z,4.50
2018-10-09T01:19:39.324Z,3.90
2018-10-09T01:22:08.379Z,4.20
2018-10-09T01:24:43.558Z,4.13
2018-10-09T01:27:17.716Z,4.67
2018-10-09T01:29:49.405Z,4.87
2018-10-09T01:32:18.308Z,3.90
2018-10-09T01:34:47.292Z,3.87
2018-10-09T01:37:21.175Z,4.13
2018-10-09T01:39:50.194Z,4.90
2018-10-09T01:42:19.806Z,3.83
2018-10-09T01:44:49.821Z,4.00
2018-10-09T01:47:20.916Z,5.30
2018-10-09T01:49:54.796Z,5.50
2018-10-09T01:52:24.006Z,4.00
2018-10-09T01:54:58.502Z,4.10
2018-10-09T01:57:28.361Z,3.93
2018-10-09T01:59:59.860Z,4.13
2018-10-09T02:02:29.151Z,4.17
2018-10-09T02:05:00.441Z,3.93
2018-10-09T02:07:39.535Z,3.70
2018-10-09T02:10:09.422Z,4.73
2018-10-09T02:12:39.781Z,4.33
2018-10-09T02:15:16.694Z,4.20
2018-10-09T02:17:45.956Z,4.77
2018-10-09T02:20:15.206Z,4.17
2018-10-09T02:22:46.566Z,4.27
2018-10-09T02:25:19.511Z,4.30
2018-10-09T02:27:53.775Z,4.93
2018-10-09T02:30:27.738Z,3.80
2018-10-09T02:32:57.881Z,4.87
2018-10-09T02:35:27.149Z,4.33
2018-10-09T02:37:56.273Z,4.27
2018-10-09T02:40:26.046Z,4.00
2018-10-09T02:42:57.715Z,3.93
2018-10-09T02:45:27.654Z,4.20
2018-10-09T02:47:56.760Z,4.20
2018-10-09T02:50:26.249Z,4.10
2018-10-09T02:52:55.510Z,3.93
2018-10-09T02:55:27.318Z,4.30
2018-10-09T02:57:58.284Z,4.13
2018-10-09T03:00:27.130Z,4.47
2018-10-09T03:02:56.558Z,4.20
2018-10-09T03:05:25.458Z,3.90
2018-10-09T03:08:02.839Z,4.37
2018-10-09T03:10:34.818Z,4.20
2018-10-09T03:13:03.722Z,4.13
2018-10-09T03:15:32.721Z,4.50
2018-10-09T03:18:01.847Z,4.10
2018-10-09T03:20:30.822Z,4.00
2018-10-09T03:23:03.500Z,4.20
2018-10-09T03:25:35.678Z,4.43
2018-10-09T03:28:04.832Z,4.30
2018-10-09T03:30:33.831Z,4.40
2018-10-09T03:33:02.790Z,5.73
2018-10-09T03:35:32.458Z,4.57
2018-10-09T03:38:05.036Z,4.33
2018-10-09T03:40:35.809Z,5.53
2018-10-09T03:43:11.310Z,4.97
2018-10-09T03:45:40.609Z,5.00
2018-10-09T03:48:10.049Z,4.77
2018-10-09T03:50:40.195Z,5.00
2018-10-09T03:53:09.699Z,4.80
2018-10-09T03:55:42.163Z,4.73
2018-10-09T03:58:11.359Z,4.80
2018-10-09T04:00:40.303Z,4.33
2018-10-09T04:03:09.618Z,4.77
2018-10-09T04:05:38.708Z,4.97
2018-10-09T04:08:11.220Z,5.17
2018-10-09T04:10:43.042Z,4.60
2018-10-09T04:13:12.415Z,4.97
2018-10-09T04:15:41.783Z,4.60
2018-10-09T04:18:12.866Z,4.50
2018-10-09T04:20:41.892Z,4.30
2018-10-09T04:23:15.689Z,4.70
2018-10-09T04:25:47.897Z,4.73
2018-10-09T04:28:19.466Z,5.07
2018-10-09T04:30:48.955Z,4.70
2018-10-09T04:33:17.926Z,4.80
2018-10-09T04:35:47.128Z,4.57
2018-10-09T04:38:16.302Z,4.57
2018-10-09T04:40:45.681Z,5.03
2018-10-09T04:43:14.609Z,4.70
2018-10-09T04:45:45.980Z,4.47
2018-10-09T04:48:18.790Z,4.63
2018-10-09T04:51:05.250Z,4.40
2018-10-09T04:53:34.419Z,4.90
2018-10-09T04:56:03.650Z,4.57
2018-10-09T04:58:32.951Z,4.80
2018-10-09T05:01:03.682Z,4.67
2018-10-09T05:03:32.690Z,4.50
2018-10-09T05:06:01.776Z,4.63
2018-10-09T05:08:30.988Z,4.63
2018-10-09T05:10:59.925Z,5.00
2018-10-09T05:13:32.388Z,5.37
2018-10-09T05:16:04.622Z,5.50
2018-10-09T05:18:38.382Z,5.23
2018-10-09T05:21:07.834Z,4.67
2018-10-09T05:23:38.296Z,7.83
2018-10-09T05:26:07.956Z,5.70
2018-10-09T05:28:36.955Z,5.70
2018-10-09T05:31:05.949Z,6.27
2018-10-09T05:33:35.038Z,5.43
2018-10-09T05:36:04.305Z,5.67
2018-10-09T05:38:35.435Z,5.73
2018-10-09T05:41:05.969Z,5.67
2018-10-09T05:43:35.954Z,5.80
2018-10-09T05:46:10.695Z,5.87
2018-10-09T05:48:40.780Z,5.60
2018-10-09T05:51:16.019Z,6.00
2018-10-09T05:53:46.146Z,5.40
2018-10-09T05:56:15.351Z,5.50
2018-10-09T05:58:44.884Z,5.77
2018-10-09T06:01:18.101Z,5.33
2018-10-09T06:03:47.956Z,5.63
2018-10-09T06:06:16.797Z,6.07
2018-10-09T06:08:45.625Z,6.07
2018-10-09T06:11:15.003Z,6.50
2018-10-09T06:13:44.971Z,5.83
2018-10-09T06:16:17.675Z,6.47
2018-10-09T06:18:47.719Z,6.40
2018-10-09T06:21:16.806Z,7.57
2018-10-09T06:23:46.116Z,6.50
2018-10-09T06:26:15.946Z,6.40
2018-10-09T06:28:45.369Z,6.43
2018-10-09T06:31:17.267Z,6.43
2018-10-09T06:33:50.586Z,6.50
2018-10-09T06:36:21.378Z,6.67
2018-10-09T06:38:57.596Z,8.03
2018-10-09T06:41:27.268Z,7.53
2018-10-09T06:44:00.227Z,8.37
2018-10-09T06:46:29.893Z,7.87
2018-10-09T06:48:59.076Z,8.03
2018-10-09T06:51:33.671Z,8.33
2018-10-09T06:54:05.883Z,8.07
2018-10-09T06:56:35.199Z,8.57
2018-10-09T06:59:07.037Z,9.17
2018-10-09T07:01:46.232Z,10.33
2018-10-09T07:04:18.751Z,9.73
2018-10-09T07:06:50.024Z,12.40
2018-10-09T07:09:22.816Z,8.87
2018-10-09T07:11:51.973Z,9.63
2018-10-09T07:14:21.589Z,9.93
2018-10-09T07:16:54.542Z,10.57
2018-10-09T07:19:26.409Z,10.43
2018-10-09T07:21:59.408Z,9.30
2018-10-09T07:24:31.354Z,11.03
2018-10-09T07:27:00.556Z,10.13
2018-10-09T07:29:37.789Z,10.10
2018-10-09T07:32:07.015Z,10.93
2018-10-09T07:34:38.457Z,10.93
2018-10-09T07:37:07.798Z,12.43
2018-10-09T07:39:38.361Z,10.23
2018-10-09T07:42:07.417Z,11.83
2018-10-09T07:44:40.631Z,9.73
2018-10-09T07:47:10.299Z,8.40
2018-10-09T07:49:39.452Z,8.50
2018-10-09T07:52:12.407Z,9.83
2018-10-09T07:54:41.910Z,8.67
2018-10-09T07:57:15.220Z,12.30
2018-10-09T07:59:45.431Z,8.97
2018-10-09T08:02:14.929Z,7.77
2018-10-09T08:04:44.266Z,8.73
2018-10-09T08:07:17.347Z,7.20
2018-10-09T08:09:48.757Z,7.60
2018-10-09T08:12:18.136Z,7.33
2018-10-09T08:14:49.093Z,6.97
2018-10-09T08:17:18.681Z,7.40
2018-10-09T08:19:48.044Z,7.43
2018-10-09T08:22:18.439Z,6.73
2018-10-09T08:25:12.650Z,5.90
2018-10-09T08:27:44.191Z,7.37
2018-10-09T08:30:14.076Z,8.07
2018-10-09T08:32:44.263Z,5.83
2018-10-09T08:35:13.548Z,7.20
2018-10-09T08:37:42.765Z,7.00
2018-10-09T08:40:13.740Z,5.70
2018-10-09T08:42:44.726Z,7.63
2018-10-09T08:45:14.718Z,5.40
2018-10-09T08:47:47.659Z,5.23
2018-10-09T08:50:17.349Z,6.57
2018-10-09T08:52:53.949Z,7.23
2018-10-09T08:55:23.090Z,5.27
2018-10-09T08:57:52.423Z,5.93
2018-10-09T09:00:24.976Z,5.60
2018-10-09T09:02:59.436Z,7.67
2018-10-09T09:05:31.171Z,4.57
2018-10-09T09:08:00.516Z,5.73
2018-10-09T09:10:29.811Z,4.33
2018-10-09T09:13:00.683Z,8.47
2018-10-09T09:15:30.300Z,5.63
2018-10-09T09:18:00.682Z,6.80
2018-10-09T09:20:37.087Z,4.43
2018-10-09T09:23:07.229Z,5.77
2018-10-09T09:25:36.996Z,5.50
2018-10-09T09:28:06.029Z,6.80
2018-10-09T09:30:35.377Z,6.83
2018-10-09T09:33:05.521Z,4.40
2018-10-09T09:35:42.891Z,7.20
2018-10-09T09:38:16.032Z,6.27
2018-10-09T09:40:45.836Z,5.97
2018-10-09T09:43:15.077Z,8.37
2018-10-09T09:45:44.332Z,5.73
2018-10-09T09:48:13.195Z,8.10
2018-10-09T09:50:42.177Z,9.43
2018-10-09T09:53:16.108Z,7.83
2018-10-09T09:55:45.912Z,6.70
2018-10-09T09:58:17.793Z,7.00
2018-10-09T10:01:54.490Z,5.13
2018-10-09T10:04:26.993Z,6.87
2018-10-09T10:06:55.992Z,5.93
2018-10-09T10:09:25.319Z,7.30
2018-10-09T10:11:58.550Z,6.13
2018-10-09T10:14:28.156Z,5.90
2018-10-09T10:16:59.687Z,7.97
2018-10-09T10:19:28.654Z,4.67
2018-10-09T10:21:57.580Z,6.33
2018-10-09T10:24:27.912Z,5.17
2018-10-09T10:26:57.010Z,7.40
2018-10-09T10:29:26.333Z,7.87
2018-10-09T10:32:02.246Z,4.10
2018-10-09T10:34:39.112Z,4.87
2018-10-09T10:37:08.481Z,6.97
2018-10-09T10:39:37.513Z,5.87
2018-10-09T10:42:08.871Z,6.27
2018-10-09T10:44:41.849Z,4.00
2018-10-09T10:47:11.265Z,4.73
2018-10-09T10:49:43.886Z,4.37
2018-10-09T10:52:13.044Z,4.43
2018-10-09T10:54:42.042Z,5.23
2018-10-09T10:57:12.799Z,4.00
2018-10-09T10:59:42.584Z,5.90
2018-10-09T11:02:15.817Z,4.90
2018-10-09T11:04:47.021Z,3.90
2018-10-09T11:07:16.357Z,3.77
2018-10-09T11:09:45.775Z,5.77
2018-10-09T11:12:16.960Z,6.57
2018-10-09T11:14:47.894Z,5.17
2018-10-09T11:17:17.251Z,5.40
2018-10-09T11:19:46.344Z,4.23
2018-10-09T11:22:15.308Z,4.10
2018-10-09T11:24:55.506Z,3.47
2018-10-09T11:27:25.159Z,4.30
2018-10-09T11:29:54.428Z,5.73
2018-10-09T11:32:27.809Z,4.40
2018-10-09T11:34:56.854Z,3.90
2018-10-09T11:37:33.610Z,5.07
2018-10-09T11:40:02.721Z,3.70
2018-10-09T11:42:32.289Z,3.23
2018-10-09T11:45:01.596Z,3.30
2018-10-09T11:47:30.828Z,4.50
2018-10-09T11:50:02.296Z,5.63
2018-10-09T11:52:39.240Z,5.07
2018-10-09T11:55:08.815Z,3.77
2018-10-09T11:57:38.101Z,5.30
2018-10-09T12:00:08.169Z,3.60
2018-10-09T12:02:37.867Z,5.27
2018-10-09T12:05:07.562Z,4.07
2018-10-09T12:07:38.466Z,3.47
2018-10-09T12:10:08.756Z,4.83
2018-10-09T12:12:38.168Z,3.80
2018-10-09T12:15:07.404Z,4.70
2018-10-09T12:17:36.861Z,5.03
2018-10-09T12:20:06.111Z,5.90
2018-10-09T12:22:36.185Z,6.37
2018-10-09T12:25:13.393Z,7.63
2018-10-09T12:27:45.051Z,4.03
2018-10-09T12:30:21.688Z,4.07
2018-10-09T12:32:58.727Z,3.87
2018-10-09T12:35:29.347Z,4.10
2018-10-09T12:37:59.255Z,5.90
2018-10-09T12:40:30.462Z,4.73
2018-10-09T12:42:59.620Z,5.13
2018-10-09T12:45:29.159Z,4.13
2018-10-09T12:47:58.698Z,4.93
2018-10-09T12:50:30.604Z,6.27
2018-10-09T12:53:00.218Z,4.30
2018-10-09T12:55:29.486Z,5.73
2018-10-09T12:58:00.346Z,4.10
2018-10-09T13:00:31.457Z,4.27
2018-10-09T13:03:04.256Z,3.43
2018-10-09T13:05:37.285Z,3.70
2018-10-09T13:08:09.587Z,5.90
2018-10-09T13:10:39.409Z,3.33
2018-10-09T13:13:08.653Z,4.93
2018-10-09T13:15:38.918Z,3.67
2018-10-09T13:18:08.122Z,5.17
2018-10-09T13:20:44.530Z,3.87
2018-10-09T13:23:17.004Z,3.17
2018-10-09T13:26:02.525Z,3.33
2018-10-09T13:28:34.012Z,3.27
2018-10-09T13:31:03.337Z,4.10
2018-10-09T13:33:32.325Z,3.53
2018-10-09T13:36:01.516Z,2.93
2018-10-09T13:38:30.681Z,2.97
2018-10-09T13:41:00.608Z,2.77
2018-10-09T13:43:29.660Z,3.30
2018-10-09T13:45:58.621Z,3.83
2018-10-09T13:48:28.299Z,3.17
2018-10-09T13:50:57.634Z,4.20
2018-10-09T13:53:27.902Z,3.93
2018-10-09T13:55:57.037Z,5.10
2018-10-09T13:58:26.121Z,3.33
2018-10-09T14:00:55.426Z,3.50
2018-10-09T14:03:24.595Z,4.80
2018-10-09T14:05:54.977Z,4.07
2018-10-09T14:08:24.573Z,3.73
2018-10-09T14:10:54.949Z,4.47
2018-10-09T14:13:24.354Z,4.00
2018-10-09T14:15:54.112Z,4.23
2018-10-09T14:18:23.699Z,2.43
2018-10-09T14:21:04.558Z,3.03
2018-10-09T14:23:34.180Z,2.33
2018-10-09T14:26:05.493Z,2.90
2018-10-09T14:28:34.849Z,3.53
2018-10-09T14:31:03.963Z,3.10
2018-10-09T14:33:33.505Z,2.20
2018-10-09T14:36:05.112Z,3.17
2018-10-09T14:38:35.288Z,3.03
2018-10-09T14:41:04.338Z,3.37
2018-10-09T14:43:39.257Z,2.97
2018-10-09T14:46:10.127Z,2.73
2018-10-09T14:48:39.535Z,2.80
2018-10-09T14:51:08.750Z,2.70
2018-10-09T14:53:41.109Z,3.40
2018-10-09T14:56:10.240Z,3.37
2018-10-09T14:58:44.460Z,3.33
2018-10-09T15:01:13.721Z,2.63
2018-10-09T15:03:44.819Z,3.37
2018-10-09T15:06:13.873Z,2.93
2018-10-09T15:08:43.160Z,2.87
2018-10-09T15:11:12.749Z,3.17
2018-10-09T15:13:41.982Z,3.87
2018-10-09T15:16:11.256Z,2.90
2018-10-09T15:18:41.114Z,2.90
2018-10-09T15:21:10.408Z,3.43
2018-10-09T15:23:43.885Z,3.13
2018-10-09T15:26:13.821Z,3.53
2018-10-09T15:28:44.837Z,3.83
2018-10-09T15:31:14.304Z,3.00
2018-10-09T15:33:43.699Z,2.87
2018-10-09T15:36:12.903Z,2.97
2018-10-09T15:38:42.792Z,3.33
2018-10-09T15:41:11.769Z,2.97
2018-10-09T15:43:44.576Z,3.77
2018-10-09T15:46:13.705Z,3.13
2018-10-09T15:48:43.719Z,3.23
2018-10-09T15:51:14.966Z,3.10
2018-10-09T15:53:47.161Z,3.77
2018-10-09T15:56:20.549Z,4.13
2018-10-09T15:58:49.777Z,3.07
2018-10-09T16:01:18.665Z,4.87
2018-10-09T16:03:54.973Z,4.00
2018-10-09T16:06:27.499Z,5.33
2018-10-09T16:08:59.848Z,4.40
2018-10-09T16:11:33.734Z,4.50
2018-10-09T16:14:06.839Z,3.37
2018-10-09T16:16:35.861Z,4.07
2018-10-09T16:19:09.417Z,3.60
2018-10-09T16:21:39.161Z,3.50
2018-10-09T16:24:08.077Z,3.63
2018-10-09T16:26:36.832Z,3.73
2018-10-09T16:29:06.201Z,4.73
2018-10-09T16:31:35.353Z,3.13
2018-10-09T16:34:04.580Z,3.83
2018-10-09T16:36:35.707Z,3.57
2018-10-09T16:39:07.580Z,3.97
2018-10-09T16:41:36.335Z,4.87
2018-10-09T16:44:05.760Z,3.63
2018-10-09T16:46:40.696Z,4.13
2018-10-09T16:49:12.884Z,5.80
2018-10-09T16:51:42.912Z,4.00
2018-10-09T16:54:16.159Z,4.60
2018-10-09T16:56:45.021Z,3.47
2018-10-09T16:59:14.167Z,5.57
2018-10-09T17:01:49.024Z,3.80
2018-10-09T17:04:18.382Z,3.30
2018-10-09T17:06:50.257Z,3.20
2018-10-09T17:09:19.017Z,5.00
2018-10-09T17:11:47.992Z,4.63
2018-10-09T17:14:22.264Z,4.47
2018-10-09T17:16:51.421Z,4.00
2018-10-09T17:19:25.071Z,4.13
2018-10-09T17:22:05.002Z,4.07
2018-10-09T17:24:33.935Z,5.23
2018-10-09T17:27:06.207Z,4.67
2018-10-09T17:29:36.990Z,4.17
2018-10-09T17:32:11.585Z,4.63
2018-10-09T17:34:42.806Z,8.53
2018-10-09T17:37:11.852Z,4.10
2018-10-09T17:39:41.022Z,5.87
2018-10-09T17:42:11.614Z,4.07
2018-10-09T17:44:41.981Z,4.40
2018-10-09T17:47:14.361Z,4.73
2018-10-09T17:49:44.947Z,3.50
2018-10-09T17:52:14.039Z,4.63
2018-10-09T17:54:43.386Z,4.53
2018-10-09T17:57:12.587Z,6.60
2018-10-09T17:59:44.960Z,4.07
2018-10-09T18:02:13.932Z,5.47
2018-10-09T18:04:46.464Z,6.63
2018-10-09T18:07:16.012Z,4.40
2018-10-09T18:09:45.247Z,5.27
2018-10-09T18:12:14.921Z,4.43
2018-10-09T18:14:46.845Z,4.80
2018-10-09T18:17:17.378Z,6.90
2018-10-09T18:19:50.248Z,3.90
2018-10-09T18:22:24.943Z,5.27
2018-10-09T18:25:00.669Z,4.60
2018-10-09T18:27:31.966Z,4.30
2018-10-09T18:30:01.274Z,6.80
2018-10-09T18:32:31.414Z,3.97
2018-10-09T18:35:00.470Z,3.50
2018-10-09T18:37:32.187Z,6.93
2018-10-09T18:40:02.795Z,6.17
2018-10-09T18:42:31.584Z,4.37
2018-10-09T18:45:04.105Z,5.23
2018-10-09T18:47:39.197Z,6.33
2018-10-09T18:50:08.106Z,8.03
2018-10-09T18:52:39.809Z,6.33
2018-10-09T18:55:10.749Z,5.20
2018-10-09T18:57:40.524Z,6.37
2018-10-09T19:00:11.462Z,6.27
2018-10-09T19:02:41.042Z,5.53
2018-10-09T19:05:11.439Z,4.83
2018-10-09T19:07:41.694Z,4.67
2018-10-09T19:10:10.785Z,7.63
2018-10-09T19:12:39.776Z,5.27
2018-10-09T19:15:13.362Z,5.67
2018-10-09T19:17:52.874Z,4.43
2018-10-09T19:20:27.016Z,6.60
2018-10-09T19:22:58.104Z,6.87
2018-10-09T19:25:28.683Z,5.80
2018-10-09T19:28:00.946Z,6.23
2018-10-09T19:30:30.136Z,6.73
2018-10-09T19:33:02.722Z,8.03
2018-10-09T19:35:33.699Z,5.40
2018-10-09T19:38:08.644Z,5.17
2018-10-09T19:40:43.387Z,6.07
2018-10-09T19:43:19.757Z,5.37
2018-10-09T19:45:53.547Z,5.27
2018-10-09T19:48:30.346Z,5.70
2018-10-09T19:50:59.883Z,5.00
2018-10-09T19:53:38.088Z,5.53
2018-10-09T19:56:12.468Z,6.63
2018-10-09T19:58:45.741Z,6.43
2018-10-09T20:01:18.034Z,8.20
2018-10-09T20:03:49.842Z,7.90
2018-10-09T20:06:22.084Z,6.70
2018-10-09T20:08:53.084Z,6.43
2018-10-09T20:11:26.416Z,6.27
2018-10-09T20:13:56.746Z,7.27
2018-10-09T20:16:27.089Z,5.87
2018-10-09T20:19:02.218Z,5.80
2018-10-09T20:21:34.349Z,5.37
2018-10-09T20:24:03.491Z,5.73
2018-10-09T20:26:40.916Z,6.50
2018-10-09T20:29:15.282Z,7.80
2018-10-09T20:31:45.671Z,8.73
2018-10-09T20:34:19.601Z,7.40
2018-10-09T20:36:48.635Z,7.43
2018-10-09T20:39:21.945Z,6.10
2018-10-09T20:41:54.771Z,9.37
2018-10-09T20:44:23.970Z,5.83
2018-10-09T20:46:53.095Z,6.67
2018-10-09T20:51:57.941Z,5.63
2018-10-09T20:54:33.041Z,8.07
2018-10-09T20:57:11.261Z,9.20
2018-10-09T20:59:47.106Z,7.93
2018-10-09T21:02:16.323Z,6.03
2018-10-09T21:04:47.296Z,8.27
2018-10-09T21:07:16.270Z,10.13
2018-10-09T21:09:45.213Z,9.47
2018-10-09T21:12:21.437Z,5.67
2018-10-09T21:14:56.757Z,7.43
2018-10-09T21:17:31.972Z,7.43
2018-10-09T21:20:04.792Z,7.07
2018-10-09T21:22:40.714Z,8.70
2018-10-09T21:25:09.676Z,8.57
2018-10-09T21:27:40.623Z,8.90
2018-10-09T21:30:10.043Z,5.43
2018-10-09T21:32:47.110Z,6.20
2018-10-09T21:35:23.336Z,10.60
2018-10-09T21:37:52.266Z,8.20
2018-10-09T21:40:25.471Z,7.20
2018-10-09T21:42:57.314Z,9.73
2018-10-09T21:45:27.331Z,8.93
2018-10-09T21:48:02.761Z,7.33
2018-10-09T21:50:41.158Z,6.43
2018-10-09T21:53:13.864Z,8.83
2018-10-09T21:55:46.441Z,7.63
2018-10-09T21:58:15.313Z,8.20
2018-10-09T22:00:51.547Z,10.03
2018-10-09T22:03:20.696Z,7.93
2018-10-09T22:05:52.376Z,7.60
2018-10-09T22:08:21.528Z,6.63
2018-10-09T22:10:51.095Z,9.73
2018-10-09T22:13:25.234Z,14.27
2018-10-09T22:15:58.031Z,10.70
2018-10-09T22:18:27.289Z,9.77
2018-10-09T22:21:02.004Z,9.97
2018-10-09T22:23:31.430Z,13.50
2018-10-09T22:26:01.165Z,10.07
2018-10-09T22:28:33.081Z,15.47
2018-10-09T22:31:05.761Z,11.13
2018-10-09T22:33:35.829Z,10.37
2018-10-09T22:36:08.340Z,14.00
2018-10-09T22:38:45.741Z,15.23
2018-10-09T22:41:24.794Z,14.07
2018-10-09T22:43:55.270Z,16.20
2018-10-09T22:46:33.383Z,13.67
2018-10-09T22:49:02.596Z,16.60
2018-10-09T22:51:32.005Z,16.50
2018-10-09T22:54:01.709Z,17.63
2018-10-09T22:56:31.225Z,17.00
2018-10-09T22:59:03.838Z,15.37
2018-10-09T23:01:33.740Z,17.53
2018-10-09T23:04:08.735Z,14.87
2018-10-09T23:06:46.789Z,15.00
2018-10-09T23:09:18.956Z,13.20
2018-10-09T23:11:51.052Z,14.57
2018-10-09T23:14:26.365Z,19.63
2018-10-09T23:16:55.864Z,18.60
2018-10-09T23:19:28.598Z,18.90
2018-10-09T23:21:58.014Z,15.80
2018-10-09T23:24:27.537Z,17.63
2018-10-09T23:27:00.830Z,16.57
2018-10-09T23:29:33.456Z,16.60
2018-10-09T23:32:04.240Z,17.40
2018-10-09T23:34:39.751Z,15.63
2018-10-09T23:37:09.515Z,15.53
2018-10-09T23:39:41.978Z,15.23
2018-10-09T23:42:26.604Z,15.67
2018-10-09T23:44:58.106Z,17.13
2018-10-09T23:47:27.589Z,16.20
2018-10-09T23:49:56.608Z,14.37
2018-10-09T23:52:29.261Z,15.63
2018-10-09T23:54:59.391Z,14.63
2018-10-09T23:57:31.091Z,16.33
